This is the latest recevied weather packets stored in our database for station/object KI5MKI. If no packets are shown the sender has not sent any weather packets the latest 1 day(s).
| Time | Temp. | Humidity | Pressure | Rain* | Wind** | Luminosity | Snow |
|---|---|---|---|---|---|---|---|
| 1777996548 | 23.89° C | 77% | 1006.1 hPa | 0 mm | 5.36 m/s, 152° | 411 W/m² | - |
| 1777996245 | 23.89° C | 77% | 1006 hPa | 0 mm | 4.92 m/s, 147° | 331 W/m² | - |
| 1777995941 | 23.89° C | 77% | 1006.1 hPa | 0 mm | 3.13 m/s, 153° | 325 W/m² | - |
| 1777995637 | 23.89° C | 78% | 1006.1 hPa | 0 mm | 2.24 m/s, 198° | 335 W/m² | - |
| 1777995335 | 23.89° C | 77% | 1006 hPa | 0 mm | 2.24 m/s, 164° | 295 W/m² | - |
| 1777995032 | 23.89° C | 77% | 1006.3 hPa | 0 mm | 3.58 m/s, 179° | 393 W/m² | - |
| 1777994729 | 23.33° C | 78% | 1006.1 hPa | 0 mm | 3.13 m/s, 171° | 370 W/m² | - |
| 1777994424 | 23.33° C | 78% | 1006 hPa | 0 mm | 4.02 m/s, 165° | 318 W/m² | - |
| 1777994120 | 22.78° C | 79% | 1006.2 hPa | 0 mm | 2.24 m/s, 226° | 390 W/m² | - |
| 1777993817 | 23.33° C | 78% | 1006 hPa | 0 mm | 2.24 m/s, 173° | 236 W/m² | - |
| 1777993514 | 23.33° C | 80% | 1005.9 hPa | 0 mm | 3.13 m/s, 177° | 309 W/m² | - |
| 1777993210 | 22.78° C | 79% | 1006 hPa | 0 mm | 4.92 m/s, 156° | 321 W/m² | - |
| 1777992906 | 22.78° C | 81% | 1006 hPa | 0 mm | 3.58 m/s, 164° | 277 W/m² | - |
| 1777992604 | 22.78° C | 80% | 1006.2 hPa | 0 mm | 4.47 m/s, 169° | 272 W/m² | - |
| 1777992302 | 22.78° C | 80% | 1006 hPa | 0 mm | 0.89 m/s, 161° | 247 W/m² | - |
| 1777991999 | 22.78° C | 81% | 1006 hPa | 0 mm | 3.13 m/s, 165° | 309 W/m² | - |
| 1777991697 | 22.22° C | 81% | 1005.8 hPa | 0 mm | 4.92 m/s, 150° | 244 W/m² | - |
| 1777991394 | 22.22° C | 81% | 1006.1 hPa | 0 mm | 4.02 m/s, 152° | 216 W/m² | - |
| 1777991091 | 22.22° C | 82% | 1005.8 hPa | 0 mm | 3.13 m/s, 102° | 175 W/m² | - |
| 1777990788 | 22.22° C | 82% | 1006 hPa | 0 mm | 1.34 m/s, 120° | 169 W/m² | - |
| 1777990485 | 22.22° C | 82% | 1006 hPa | 0 mm | 3.13 m/s, 160° | 162 W/m² | - |
| 1777990182 | 21.67° C | 82% | 1006.1 hPa | 0 mm | 3.13 m/s, 153° | 122 W/m² | - |
| 1777989879 | 21.67° C | 82% | 1006.2 hPa | 0 mm | 2.24 m/s, 166° | 127 W/m² | - |
| 1777989575 | 21.67° C | 83% | 1006.4 hPa | 0 mm | 3.13 m/s, 157° | 118 W/m² | - |
| 1777989272 | 21.67° C | 83% | 1006.1 hPa | 0 mm | 3.58 m/s, 169° | 102 W/m² | - |
* Rain latest hour (hover to see other rain measurements)
** Current wind speed in m/s (hover to see current wind gust speed)